sensor_id;sensor_type;location;lat;lon;timestamp;P1;durP1;ratioP1;P2;durP2;ratioP2
30505;SDS011;17292;51.600;4.994;2023-04-01T00:00:32;12.77;;;3.47;;
30505;SDS011;17292;51.600;4.994;2023-04-01T00:02:58;12.10;;;3.25;;
30505;SDS011;17292;51.600;4.994;2023-04-01T00:05:25;14.82;;;3.50;;
30505;SDS011;17292;51.600;4.994;2023-04-01T00:07:51;8.02;;;3.85;;
30505;SDS011;17292;51.600;4.994;2023-04-01T00:10:18;8.82;;;3.50;;
30505;SDS011;17292;51.600;4.994;2023-04-01T00:12:44;11.93;;;3.08;;
30505;SDS011;17292;51.600;4.994;2023-04-01T00:15:11;11.90;;;3.72;;
30505;SDS011;17292;51.600;4.994;2023-04-01T00:17:37;10.57;;;3.63;;
30505;SDS011;17292;51.600;4.994;2023-04-01T00:20:04;9.00;;;3.80;;
30505;SDS011;17292;51.600;4.994;2023-04-01T00:22:32;10.55;;;3.30;;
30505;SDS011;17292;51.600;4.994;2023-04-01T00:24:59;12.07;;;3.83;;
30505;SDS011;17292;51.600;4.994;2023-04-01T00:27:25;7.78;;;3.40;;
30505;SDS011;17292;51.600;4.994;2023-04-01T00:29:51;8.05;;;3.95;;
30505;SDS011;17292;51.600;4.994;2023-04-01T00:32:17;7.50;;;3.65;;
30505;SDS011;17292;51.600;4.994;2023-04-01T00:34:43;14.32;;;3.47;;
30505;SDS011;17292;51.600;4.994;2023-04-01T00:37:10;10.02;;;3.50;;
30505;SDS011;17292;51.600;4.994;2023-04-01T00:39:37;12.23;;;4.15;;
30505;SDS011;17292;51.600;4.994;2023-04-01T00:42:03;11.15;;;3.63;;
30505;SDS011;17292;51.600;4.994;2023-04-01T00:44:31;10.93;;;3.25;;
30505;SDS011;17292;51.600;4.994;2023-04-01T00:47:00;10.60;;;3.38;;
30505;SDS011;17292;51.600;4.994;2023-04-01T00:49:28;9.50;;;3.30;;
30505;SDS011;17292;51.600;4.994;2023-04-01T00:51:55;12.73;;;3.83;;
30505;SDS011;17292;51.600;4.994;2023-04-01T00:54:24;10.23;;;3.47;;
30505;SDS011;17292;51.600;4.994;2023-04-01T00:56:52;9.93;;;3.47;;
30505;SDS011;17292;51.600;4.994;2023-04-01T00:59:54;11.20;;;4.25;;
30505;SDS011;17292;51.600;4.994;2023-04-01T01:02:15;9.05;;;3.20;;
30505;SDS011;17292;51.600;4.994;2023-04-01T01:04:42;7.43;;;3.47;;
30505;SDS011;17292;51.600;4.994;2023-04-01T01:09:50;12.23;;;3.58;;
30505;SDS011;17292;51.600;4.994;2023-04-01T01:14:51;13.77;;;3.95;;
30505;SDS011;17292;51.600;4.994;2023-04-01T01:20:10;9.82;;;3.15;;
30505;SDS011;17292;51.600;4.994;2023-04-01T01:35:49;9.60;;;3.55;;
30505;SDS011;17292;51.600;4.994;2023-04-01T01:38:17;6.85;;;3.42;;
30505;SDS011;17292;51.600;4.994;2023-04-01T01:40:45;11.25;;;3.40;;
30505;SDS011;17292;51.600;4.994;2023-04-01T01:43:14;10.27;;;3.30;;
30505;SDS011;17292;51.600;4.994;2023-04-01T01:45:44;11.90;;;3.40;;
30505;SDS011;17292;51.600;4.994;2023-04-01T01:48:10;7.43;;;3.28;;
30505;SDS011;17292;51.600;4.994;2023-04-01T01:50:37;8.43;;;3.53;;
30505;SDS011;17292;51.600;4.994;2023-04-01T01:53:05;8.88;;;3.88;;
30505;SDS011;17292;51.600;4.994;2023-04-01T01:55:36;13.70;;;3.72;;
30505;SDS011;17292;51.600;4.994;2023-04-01T01:58:04;7.03;;;3.13;;
30505;SDS011;17292;51.600;4.994;2023-04-01T02:00:32;7.43;;;3.22;;
30505;SDS011;17292;51.600;4.994;2023-04-01T02:02:59;12.68;;;3.70;;
30505;SDS011;17292;51.600;4.994;2023-04-01T02:05:26;8.70;;;4.00;;
30505;SDS011;17292;51.600;4.994;2023-04-01T02:08:09;7.95;;;3.25;;
30505;SDS011;17292;51.600;4.994;2023-04-01T02:10:37;8.40;;;3.30;;
30505;SDS011;17292;51.600;4.994;2023-04-01T02:13:07;10.18;;;3.40;;
30505;SDS011;17292;51.600;4.994;2023-04-01T02:15:36;7.57;;;3.17;;
30505;SDS011;17292;51.600;4.994;2023-04-01T02:18:03;8.77;;;3.35;;
30505;SDS011;17292;51.600;4.994;2023-04-01T02:20:30;9.40;;;3.47;;
30505;SDS011;17292;51.600;4.994;2023-04-01T02:22:56;9.27;;;3.17;;
30505;SDS011;17292;51.600;4.994;2023-04-01T02:25:29;6.35;;;2.72;;
30505;SDS011;17292;51.600;4.994;2023-04-01T02:27:56;8.50;;;3.20;;
30505;SDS011;17292;51.600;4.994;2023-04-01T02:30:23;9.25;;;3.20;;
30505;SDS011;17292;51.600;4.994;2023-04-01T02:32:51;6.43;;;3.08;;
30505;SDS011;17292;51.600;4.994;2023-04-01T02:35:18;7.25;;;3.25;;
30505;SDS011;17292;51.600;4.994;2023-04-01T02:37:45;9.43;;;3.40;;
30505;SDS011;17292;51.600;4.994;2023-04-01T02:40:14;9.75;;;3.03;;
30505;SDS011;17292;51.600;4.994;2023-04-01T02:42:40;8.43;;;3.42;;
30505;SDS011;17292;51.600;4.994;2023-04-01T02:45:07;9.13;;;3.03;;
30505;SDS011;17292;51.600;4.994;2023-04-01T02:47:33;7.75;;;3.00;;
30505;SDS011;17292;51.600;4.994;2023-04-01T02:49:59;9.13;;;3.35;;
30505;SDS011;17292;51.600;4.994;2023-04-01T02:52:26;11.65;;;3.40;;
30505;SDS011;17292;51.600;4.994;2023-04-01T02:54:52;8.00;;;3.53;;
30505;SDS011;17292;51.600;4.994;2023-04-01T02:57:19;8.75;;;3.35;;
30505;SDS011;17292;51.600;4.994;2023-04-01T02:59:45;9.43;;;2.88;;
30505;SDS011;17292;51.600;4.994;2023-04-01T03:02:11;11.88;;;3.90;;
30505;SDS011;17292;51.600;4.994;2023-04-01T03:04:37;7.03;;;3.00;;
30505;SDS011;17292;51.600;4.994;2023-04-01T03:07:03;7.07;;;2.95;;
30505;SDS011;17292;51.600;4.994;2023-04-01T03:09:30;8.25;;;2.72;;
30505;SDS011;17292;51.600;4.994;2023-04-01T03:11:56;8.38;;;3.20;;
30505;SDS011;17292;51.600;4.994;2023-04-01T03:14:22;9.25;;;3.38;;
30505;SDS011;17292;51.600;4.994;2023-04-01T03:16:48;12.65;;;3.92;;
30505;SDS011;17292;51.600;4.994;2023-04-01T03:19:14;7.30;;;2.90;;
30505;SDS011;17292;51.600;4.994;2023-04-01T03:21:40;7.30;;;3.13;;
30505;SDS011;17292;51.600;4.994;2023-04-01T03:24:06;9.70;;;3.22;;
30505;SDS011;17292;51.600;4.994;2023-04-01T03:26:33;5.00;;;2.72;;
30505;SDS011;17292;51.600;4.994;2023-04-01T03:28:59;7.45;;;3.17;;
30505;SDS011;17292;51.600;4.994;2023-04-01T03:31:25;7.78;;;3.38;;
30505;SDS011;17292;51.600;4.994;2023-04-01T03:33:51;12.85;;;3.05;;
30505;SDS011;17292;51.600;4.994;2023-04-01T03:36:17;5.45;;;2.72;;
30505;SDS011;17292;51.600;4.994;2023-04-01T03:38:44;6.30;;;2.55;;
30505;SDS011;17292;51.600;4.994;2023-04-01T03:41:14;8.60;;;3.00;;
30505;SDS011;17292;51.600;4.994;2023-04-01T03:43:40;7.53;;;3.42;;
30505;SDS011;17292;51.600;4.994;2023-04-01T03:46:06;8.18;;;3.40;;
30505;SDS011;17292;51.600;4.994;2023-04-01T03:48:33;9.75;;;3.42;;
30505;SDS011;17292;51.600;4.994;2023-04-01T03:50:59;7.78;;;3.03;;
30505;SDS011;17292;51.600;4.994;2023-04-01T03:53:25;7.03;;;3.33;;
30505;SDS011;17292;51.600;4.994;2023-04-01T03:55:52;9.32;;;3.10;;
30505;SDS011;17292;51.600;4.994;2023-04-01T03:58:18;7.85;;;3.25;;
30505;SDS011;17292;51.600;4.994;2023-04-01T04:00:45;9.77;;;3.42;;
30505;SDS011;17292;51.600;4.994;2023-04-01T04:03:11;7.32;;;2.92;;
30505;SDS011;17292;51.600;4.994;2023-04-01T04:05:37;6.57;;;3.30;;
30505;SDS011;17292;51.600;4.994;2023-04-01T04:08:03;6.18;;;2.90;;
30505;SDS011;17292;51.600;4.994;2023-04-01T04:10:29;8.20;;;2.88;;
30505;SDS011;17292;51.600;4.994;2023-04-01T04:12:56;6.28;;;3.15;;
30505;SDS011;17292;51.600;4.994;2023-04-01T04:15:22;8.43;;;3.45;;
30505;SDS011;17292;51.600;4.994;2023-04-01T04:17:48;7.40;;;3.00;;
30505;SDS011;17292;51.600;4.994;2023-04-01T04:20:14;5.93;;;2.63;;
30505;SDS011;17292;51.600;4.994;2023-04-01T04:22:41;8.80;;;3.35;;
30505;SDS011;17292;51.600;4.994;2023-04-01T04:25:07;5.65;;;2.70;;
30505;SDS011;17292;51.600;4.994;2023-04-01T04:27:33;8.02;;;2.88;;
30505;SDS011;17292;51.600;4.994;2023-04-01T04:30:00;5.85;;;2.80;;
30505;SDS011;17292;51.600;4.994;2023-04-01T04:32:26;8.68;;;2.65;;
30505;SDS011;17292;51.600;4.994;2023-04-01T04:34:52;8.43;;;2.90;;
30505;SDS011;17292;51.600;4.994;2023-04-01T04:37:18;7.68;;;2.67;;
30505;SDS011;17292;51.600;4.994;2023-04-01T04:39:44;10.50;;;3.10;;
30505;SDS011;17292;51.600;4.994;2023-04-01T04:42:11;5.40;;;2.97;;
30505;SDS011;17292;51.600;4.994;2023-04-01T04:44:37;7.75;;;3.00;;
30505;SDS011;17292;51.600;4.994;2023-04-01T04:47:03;10.18;;;2.92;;
30505;SDS011;17292;51.600;4.994;2023-04-01T04:49:29;5.30;;;2.80;;
30505;SDS011;17292;51.600;4.994;2023-04-01T04:51:55;7.78;;;2.90;;
30505;SDS011;17292;51.600;4.994;2023-04-01T04:54:21;4.82;;;2.35;;
30505;SDS011;17292;51.600;4.994;2023-04-01T04:56:47;9.73;;;3.10;;
30505;SDS011;17292;51.600;4.994;2023-04-01T04:59:14;8.50;;;2.97;;
30505;SDS011;17292;51.600;4.994;2023-04-01T05:01:40;6.70;;;3.05;;
30505;SDS011;17292;51.600;4.994;2023-04-01T05:04:06;8.40;;;3.00;;
30505;SDS011;17292;51.600;4.994;2023-04-01T05:06:32;6.72;;;2.67;;
30505;SDS011;17292;51.600;4.994;2023-04-01T05:08:58;5.40;;;2.80;;
30505;SDS011;17292;51.600;4.994;2023-04-01T05:11:24;7.50;;;2.92;;
30505;SDS011;17292;51.600;4.994;2023-04-01T05:13:51;8.20;;;2.85;;
30505;SDS011;17292;51.600;4.994;2023-04-01T05:16:18;6.30;;;2.75;;
30505;SDS011;17292;51.600;4.994;2023-04-01T05:18:45;8.63;;;2.80;;
30505;SDS011;17292;51.600;4.994;2023-04-01T05:21:12;10.45;;;2.95;;
30505;SDS011;17292;51.600;4.994;2023-04-01T05:23:38;5.25;;;2.47;;
30505;SDS011;17292;51.600;4.994;2023-04-01T05:26:05;6.47;;;3.45;;
30505;SDS011;17292;51.600;4.994;2023-04-01T05:28:31;5.32;;;2.60;;
30505;SDS011;17292;51.600;4.994;2023-04-01T05:30:58;7.75;;;3.25;;
30505;SDS011;17292;51.600;4.994;2023-04-01T05:33:26;8.50;;;2.80;;
30505;SDS011;17292;51.600;4.994;2023-04-01T05:35:53;6.20;;;2.85;;
30505;SDS011;17292;51.600;4.994;2023-04-01T05:38:19;7.63;;;2.95;;
30505;SDS011;17292;51.600;4.994;2023-04-01T05:40:45;5.78;;;2.80;;
30505;SDS011;17292;51.600;4.994;2023-04-01T05:43:11;6.57;;;2.92;;
30505;SDS011;17292;51.600;4.994;2023-04-01T05:45:38;6.75;;;2.50;;
30505;SDS011;17292;51.600;4.994;2023-04-01T05:48:04;6.72;;;2.85;;
30505;SDS011;17292;51.600;4.994;2023-04-01T05:50:30;4.18;;;2.65;;
30505;SDS011;17292;51.600;4.994;2023-04-01T05:52:56;5.45;;;2.97;;
30505;SDS011;17292;51.600;4.994;2023-04-01T05:55:23;5.18;;;2.88;;
30505;SDS011;17292;51.600;4.994;2023-04-01T05:57:49;3.70;;;2.40;;
30505;SDS011;17292;51.600;4.994;2023-04-01T06:00:16;6.85;;;3.03;;
30505;SDS011;17292;51.600;4.994;2023-04-01T06:02:42;5.22;;;2.70;;
30505;SDS011;17292;51.600;4.994;2023-04-01T06:05:27;4.32;;;2.35;;
30505;SDS011;17292;51.600;4.994;2023-04-01T06:08:13;6.15;;;2.58;;
30505;SDS011;17292;51.600;4.994;2023-04-01T06:10:55;6.15;;;3.08;;
30505;SDS011;17292;51.600;4.994;2023-04-01T06:15:57;7.93;;;2.85;;
30505;SDS011;17292;51.600;4.994;2023-04-01T06:18:38;5.35;;;2.85;;
30505;SDS011;17292;51.600;4.994;2023-04-01T06:28:52;4.13;;;2.75;;
30505;SDS011;17292;51.600;4.994;2023-04-01T06:36:39;8.98;;;2.85;;
30505;SDS011;17292;51.600;4.994;2023-04-01T06:42:05;9.15;;;2.47;;
30505;SDS011;17292;51.600;4.994;2023-04-01T06:58:06;5.72;;;2.25;;
30505;SDS011;17292;51.600;4.994;2023-04-01T07:00:38;5.37;;;2.50;;
30505;SDS011;17292;51.600;4.994;2023-04-01T07:05:32;6.60;;;2.85;;
30505;SDS011;17292;51.600;4.994;2023-04-01T07:08:04;6.93;;;2.88;;
30505;SDS011;17292;51.600;4.994;2023-04-01T07:10:37;5.70;;;2.97;;
30505;SDS011;17292;51.600;4.994;2023-04-01T07:13:11;6.03;;;2.60;;
30505;SDS011;17292;51.600;4.994;2023-04-01T07:15:40;5.13;;;2.53;;
30505;SDS011;17292;51.600;4.994;2023-04-01T07:20:37;8.93;;;3.17;;
30505;SDS011;17292;51.600;4.994;2023-04-01T07:26:00;6.43;;;2.83;;
30505;SDS011;17292;51.600;4.994;2023-04-01T07:28:28;4.50;;;2.33;;
30505;SDS011;17292;51.600;4.994;2023-04-01T07:31:45;7.47;;;2.97;;
30505;SDS011;17292;51.600;4.994;2023-04-01T07:41:23;6.72;;;2.90;;
30505;SDS011;17292;51.600;4.994;2023-04-01T07:44:01;4.00;;;2.50;;
30505;SDS011;17292;51.600;4.994;2023-04-01T07:47:06;7.82;;;2.30;;
30505;SDS011;17292;51.600;4.994;2023-04-01T07:54:40;4.50;;;2.47;;
30505;SDS011;17292;51.600;4.994;2023-04-01T07:57:11;6.22;;;2.30;;
30505;SDS011;17292;51.600;4.994;2023-04-01T08:02:21;6.43;;;2.60;;
30505;SDS011;17292;51.600;4.994;2023-04-01T08:04:57;4.57;;;2.40;;
30505;SDS011;17292;51.600;4.994;2023-04-01T08:07:30;4.82;;;2.10;;
30505;SDS011;17292;51.600;4.994;2023-04-01T08:15:28;5.60;;;2.67;;
30505;SDS011;17292;51.600;4.994;2023-04-01T08:20:30;5.70;;;2.35;;
30505;SDS011;17292;51.600;4.994;2023-04-01T08:23:00;6.13;;;2.35;;
30505;SDS011;17292;51.600;4.994;2023-04-01T08:25:28;6.40;;;2.63;;
30505;SDS011;17292;51.600;4.994;2023-04-01T08:30:45;3.88;;;2.45;;
30505;SDS011;17292;51.600;4.994;2023-04-01T08:33:21;4.05;;;2.00;;
30505;SDS011;17292;51.600;4.994;2023-04-01T08:35:52;6.72;;;2.60;;
30505;SDS011;17292;51.600;4.994;2023-04-01T08:38:30;4.78;;;2.72;;
30505;SDS011;17292;51.600;4.994;2023-04-01T09:15:53;3.13;;;2.08;;
30505;SDS011;17292;51.600;4.994;2023-04-01T09:20:19;4.88;;;2.85;;
30505;SDS011;17292;51.600;4.994;2023-04-01T09:25:45;4.32;;;2.55;;
30505;SDS011;17292;51.600;4.994;2023-04-01T09:28:17;5.68;;;2.58;;
30505;SDS011;17292;51.600;4.994;2023-04-01T09:36:07;5.47;;;2.70;;
30505;SDS011;17292;51.600;4.994;2023-04-01T09:51:40;4.45;;;2.17;;
30505;SDS011;17292;51.600;4.994;2023-04-01T09:54:17;4.25;;;2.47;;
30505;SDS011;17292;51.600;4.994;2023-04-01T10:18:27;3.88;;;2.25;;
30505;SDS011;17292;51.600;4.994;2023-04-01T10:23:39;5.82;;;2.38;;
30505;SDS011;17292;51.600;4.994;2023-04-01T10:39:33;4.85;;;2.40;;
30505;SDS011;17292;51.600;4.994;2023-04-01T10:52:46;3.58;;;2.20;;
30505;SDS011;17292;51.600;4.994;2023-04-01T10:55:37;4.07;;;2.38;;
30505;SDS011;17292;51.600;4.994;2023-04-01T10:58:13;4.53;;;2.08;;
30505;SDS011;17292;51.600;4.994;2023-04-01T11:06:25;4.97;;;2.65;;
30505;SDS011;17292;51.600;4.994;2023-04-01T11:08:50;3.78;;;2.13;;
30505;SDS011;17292;51.600;4.994;2023-04-01T11:21:46;2.95;;;2.33;;
30505;SDS011;17292;51.600;4.994;2023-04-01T11:34:59;5.43;;;2.22;;
30505;SDS011;17292;51.600;4.994;2023-04-01T11:42:38;3.58;;;2.42;;
30505;SDS011;17292;51.600;4.994;2023-04-01T11:45:21;4.43;;;2.15;;
30505;SDS011;17292;51.600;4.994;2023-04-01T11:53:02;3.53;;;1.98;;
30505;SDS011;17292;51.600;4.994;2023-04-01T12:16:54;3.75;;;2.00;;
30505;SDS011;17292;51.600;4.994;2023-04-01T12:19:26;3.53;;;2.22;;
30505;SDS011;17292;51.600;4.994;2023-04-01T12:33:01;4.95;;;2.42;;
30505;SDS011;17292;51.600;4.994;2023-04-01T12:35:46;2.17;;;1.90;;
30505;SDS011;17292;51.600;4.994;2023-04-01T12:49:05;3.77;;;2.07;;
30505;SDS011;17292;51.600;4.994;2023-04-01T12:51:59;2.72;;;2.08;;
30505;SDS011;17292;51.600;4.994;2023-04-01T12:57:10;3.25;;;1.95;;
30505;SDS011;17292;51.600;4.994;2023-04-01T13:07:39;3.50;;;2.33;;
30505;SDS011;17292;51.600;4.994;2023-04-01T13:15:22;4.45;;;2.03;;
30505;SDS011;17292;51.600;4.994;2023-04-01T13:20:29;2.75;;;2.00;;
30505;SDS011;17292;51.600;4.994;2023-04-01T13:25:44;3.22;;;2.13;;
30505;SDS011;17292;51.600;4.994;2023-04-01T13:28:16;3.10;;;1.90;;
30505;SDS011;17292;51.600;4.994;2023-04-01T13:31:00;5.28;;;2.22;;
30505;SDS011;17292;51.600;4.994;2023-04-01T13:39:02;3.80;;;2.30;;
30505;SDS011;17292;51.600;4.994;2023-04-01T13:41:47;3.10;;;2.00;;
30505;SDS011;17292;51.600;4.994;2023-04-01T13:44:22;4.13;;;1.80;;
30505;SDS011;17292;51.600;4.994;2023-04-01T13:47:05;2.13;;;1.77;;
30505;SDS011;17292;51.600;4.994;2023-04-01T14:08:00;2.85;;;1.80;;
30505;SDS011;17292;51.600;4.994;2023-04-01T14:26:15;2.70;;;1.90;;
30505;SDS011;17292;51.600;4.994;2023-04-01T14:31:20;3.25;;;2.30;;
30505;SDS011;17292;51.600;4.994;2023-04-01T14:34:00;3.28;;;2.22;;
30505;SDS011;17292;51.600;4.994;2023-04-01T14:39:20;3.47;;;2.00;;
30505;SDS011;17292;51.600;4.994;2023-04-01T14:41:48;2.67;;;1.75;;
30505;SDS011;17292;51.600;4.994;2023-04-01T14:44:33;4.72;;;2.10;;
30505;SDS011;17292;51.600;4.994;2023-04-01T14:49:50;3.25;;;1.77;;
30505;SDS011;17292;51.600;4.994;2023-04-01T14:52:22;1.92;;;1.60;;
30505;SDS011;17292;51.600;4.994;2023-04-01T14:54:50;2.70;;;1.70;;
30505;SDS011;17292;51.600;4.994;2023-04-01T14:59:49;2.97;;;1.88;;
30505;SDS011;17292;51.600;4.994;2023-04-01T15:05:15;2.30;;;1.77;;
30505;SDS011;17292;51.600;4.994;2023-04-01T15:10:31;2.45;;;1.90;;
30505;SDS011;17292;51.600;4.994;2023-04-01T15:13:12;3.90;;;2.10;;
30505;SDS011;17292;51.600;4.994;2023-04-01T15:18:09;2.72;;;2.00;;
30505;SDS011;17292;51.600;4.994;2023-04-01T15:34:55;3.15;;;2.05;;
30505;SDS011;17292;51.600;4.994;2023-04-01T15:37:04;3.05;;;2.13;;
30505;SDS011;17292;51.600;4.994;2023-04-01T15:46:56;3.47;;;1.80;;
30505;SDS011;17292;51.600;4.994;2023-04-01T16:07:43;3.53;;;1.92;;
30505;SDS011;17292;51.600;4.994;2023-04-01T16:20:19;3.03;;;2.05;;
30505;SDS011;17292;51.600;4.994;2023-04-01T16:22:54;3.33;;;2.10;;
30505;SDS011;17292;51.600;4.994;2023-04-01T16:25:32;4.40;;;2.00;;
30505;SDS011;17292;51.600;4.994;2023-04-01T16:30:47;2.08;;;1.70;;
30505;SDS011;17292;51.600;4.994;2023-04-01T16:35:47;2.17;;;1.80;;
30505;SDS011;17292;51.600;4.994;2023-04-01T16:38:30;3.00;;;1.75;;
30505;SDS011;17292;51.600;4.994;2023-04-01T16:41:04;3.85;;;2.20;;
30505;SDS011;17292;51.600;4.994;2023-04-01T16:48:49;2.47;;;1.90;;
30505;SDS011;17292;51.600;4.994;2023-04-01T16:51:18;2.92;;;2.10;;
30505;SDS011;17292;51.600;4.994;2023-04-01T16:56:20;2.83;;;1.88;;
30505;SDS011;17292;51.600;4.994;2023-04-01T16:59:04;2.22;;;1.77;;
30505;SDS011;17292;51.600;4.994;2023-04-01T17:01:41;2.55;;;1.70;;
30505;SDS011;17292;51.600;4.994;2023-04-01T17:04:53;2.95;;;2.00;;
30505;SDS011;17292;51.600;4.994;2023-04-01T17:09:42;1.73;;;1.60;;
30505;SDS011;17292;51.600;4.994;2023-04-01T17:12:16;2.22;;;1.63;;
30505;SDS011;17292;51.600;4.994;2023-04-01T17:14:48;2.22;;;1.80;;
30505;SDS011;17292;51.600;4.994;2023-04-01T17:17:34;2.50;;;2.00;;
30505;SDS011;17292;51.600;4.994;2023-04-01T17:23:12;2.45;;;1.95;;
30505;SDS011;17292;51.600;4.994;2023-04-01T17:25:23;3.35;;;1.90;;
30505;SDS011;17292;51.600;4.994;2023-04-01T17:28:05;3.58;;;2.00;;
30505;SDS011;17292;51.600;4.994;2023-04-01T17:30:37;2.30;;;1.92;;
30505;SDS011;17292;51.600;4.994;2023-04-01T17:38:45;2.60;;;2.10;;
30505;SDS011;17292;51.600;4.994;2023-04-01T17:54:47;2.95;;;1.80;;
30505;SDS011;17292;51.600;4.994;2023-04-01T17:57:31;1.95;;;1.63;;
30505;SDS011;17292;51.600;4.994;2023-04-01T18:00:12;2.13;;;1.60;;
30505;SDS011;17292;51.600;4.994;2023-04-01T18:16:42;3.58;;;2.05;;
30505;SDS011;17292;51.600;4.994;2023-04-01T18:21:27;2.88;;;1.77;;
30505;SDS011;17292;51.600;4.994;2023-04-01T18:23:56;2.05;;;1.73;;
30505;SDS011;17292;51.600;4.994;2023-04-01T18:26:28;2.40;;;1.65;;
30505;SDS011;17292;51.600;4.994;2023-04-01T18:28:59;2.35;;;1.95;;
30505;SDS011;17292;51.600;4.994;2023-04-01T18:31:32;2.78;;;1.90;;
30505;SDS011;17292;51.600;4.994;2023-04-01T18:36:38;2.00;;;1.63;;
30505;SDS011;17292;51.600;4.994;2023-04-01T18:46:55;2.30;;;1.77;;
30505;SDS011;17292;51.600;4.994;2023-04-01T18:51:59;1.88;;;1.50;;
30505;SDS011;17292;51.600;4.994;2023-04-01T18:54:32;2.15;;;1.95;;
30505;SDS011;17292;51.600;4.994;2023-04-01T18:57:07;1.63;;;1.50;;
30505;SDS011;17292;51.600;4.994;2023-04-01T19:04:52;4.70;;;1.75;;
30505;SDS011;17292;51.600;4.994;2023-04-01T19:09:51;1.88;;;1.75;;
30505;SDS011;17292;51.600;4.994;2023-04-01T19:17:21;3.13;;;1.70;;
30505;SDS011;17292;51.600;4.994;2023-04-01T19:22:40;3.30;;;1.88;;
30505;SDS011;17292;51.600;4.994;2023-04-01T19:28:01;2.83;;;1.63;;
30505;SDS011;17292;51.600;4.994;2023-04-01T19:30:36;1.60;;;1.45;;
30505;SDS011;17292;51.600;4.994;2023-04-01T19:33:18;3.28;;;1.83;;
30505;SDS011;17292;51.600;4.994;2023-04-01T19:38:30;3.63;;;1.93;;
30505;SDS011;17292;51.600;4.994;2023-04-01T19:53:51;2.65;;;1.30;;
30505;SDS011;17292;51.600;4.994;2023-04-01T19:56:22;2.72;;;1.90;;
30505;SDS011;17292;51.600;4.994;2023-04-01T19:58:59;1.85;;;1.45;;
30505;SDS011;17292;51.600;4.994;2023-04-01T20:06:48;1.95;;;1.48;;
30505;SDS011;17292;51.600;4.994;2023-04-01T20:19:42;2.45;;;1.77;;
30505;SDS011;17292;51.600;4.994;2023-04-01T20:22:19;2.20;;;1.45;;
30505;SDS011;17292;51.600;4.994;2023-04-01T20:24:50;3.50;;;2.10;;
30505;SDS011;17292;51.600;4.994;2023-04-01T20:32:54;2.03;;;1.70;;
30505;SDS011;17292;51.600;4.994;2023-04-01T20:48:21;1.85;;;1.58;;
30505;SDS011;17292;51.600;4.994;2023-04-01T20:53:20;2.00;;;1.50;;
30505;SDS011;17292;51.600;4.994;2023-04-01T20:55:55;1.63;;;1.52;;
30505;SDS011;17292;51.600;4.994;2023-04-01T20:58:28;2.47;;;1.45;;
30505;SDS011;17292;51.600;4.994;2023-04-01T21:01:07;1.98;;;1.40;;
30505;SDS011;17292;51.600;4.994;2023-04-01T21:03:48;1.90;;;1.70;;
30505;SDS011;17292;51.600;4.994;2023-04-01T21:06:27;1.90;;;1.52;;
30505;SDS011;17292;51.600;4.994;2023-04-01T21:11:37;2.83;;;1.60;;
30505;SDS011;17292;51.600;4.994;2023-04-01T21:16:35;1.58;;;1.48;;
30505;SDS011;17292;51.600;4.994;2023-04-01T21:22:03;1.42;;;1.33;;
30505;SDS011;17292;51.600;4.994;2023-04-01T21:24:43;2.00;;;1.67;;
30505;SDS011;17292;51.600;4.994;2023-04-01T22:10:01;2.85;;;1.92;;
30505;SDS011;17292;51.600;4.994;2023-04-01T22:15:06;2.58;;;1.50;;
30505;SDS011;17292;51.600;4.994;2023-04-01T22:17:39;2.50;;;1.50;;
30505;SDS011;17292;51.600;4.994;2023-04-01T22:25:44;2.13;;;1.90;;
30505;SDS011;17292;51.600;4.994;2023-04-01T22:28:18;1.50;;;1.40;;
30505;SDS011;17292;51.600;4.994;2023-04-01T22:30:50;3.42;;;1.48;;
30505;SDS011;17292;51.600;4.994;2023-04-01T22:44:07;2.83;;;1.95;;
30505;SDS011;17292;51.600;4.994;2023-04-01T22:54:31;1.70;;;1.50;;
30505;SDS011;17292;51.600;4.994;2023-04-01T23:04:39;1.48;;;1.33;;
30505;SDS011;17292;51.600;4.994;2023-04-01T23:07:14;2.38;;;1.60;;
30505;SDS011;17292;51.600;4.994;2023-04-01T23:09:45;2.20;;;1.70;;
30505;SDS011;17292;51.600;4.994;2023-04-01T23:12:13;1.95;;;1.40;;
30505;SDS011;17292;51.600;4.994;2023-04-01T23:14:46;1.88;;;1.60;;
30505;SDS011;17292;51.600;4.994;2023-04-01T23:20:12;1.85;;;1.52;;
30505;SDS011;17292;51.600;4.994;2023-04-01T23:27:54;1.40;;;1.30;;
30505;SDS011;17292;51.600;4.994;2023-04-01T23:33:26;1.63;;;1.53;;
30505;SDS011;17292;51.600;4.994;2023-04-01T23:38:20;2.22;;;1.70;;
30505;SDS011;17292;51.600;4.994;2023-04-01T23:40:51;2.60;;;1.60;;
30505;SDS011;17292;51.600;4.994;2023-04-01T23:45:50;2.25;;;1.80;;
30505;SDS011;17292;51.600;4.994;2023-04-01T23:48:17;1.98;;;1.52;;
30505;SDS011;17292;51.600;4.994;2023-04-01T23:50:44;1.73;;;1.63;;
30505;SDS011;17292;51.600;4.994;2023-04-01T23:53:18;1.65;;;1.50;;
30505;SDS011;17292;51.600;4.994;2023-04-01T23:55:46;1.48;;;1.38;;
